createdAt,value
2019-01-06T00:00:21.605Z,91.38
2019-01-06T00:03:43.438Z,91.27
2019-01-06T00:07:06.241Z,91.28
2019-01-06T00:10:41.677Z,91.45
2019-01-06T00:14:03.261Z,91.30
2019-01-06T00:17:21.792Z,91.23
2019-01-06T00:20:43.699Z,90.78
2019-01-06T00:24:05.319Z,90.76
2019-01-06T00:27:27.083Z,90.94
2019-01-06T00:31:05.262Z,91.02
2019-01-06T00:34:27.629Z,90.76
2019-01-06T00:37:49.323Z,90.65
2019-01-06T00:41:18.216Z,90.07
2019-01-06T00:44:43.808Z,90.47
2019-01-06T00:48:09.826Z,90.77
2019-01-06T00:51:47.713Z,90.94
2019-01-06T00:55:09.753Z,91.11
2019-01-06T00:58:37.529Z,91.18
2019-01-06T01:01:57.103Z,91.28
2019-01-06T01:05:18.872Z,91.30
2019-01-06T01:08:38.830Z,91.30
2019-01-06T01:12:11.056Z,91.55
2019-01-06T01:15:28.422Z,91.58
2019-01-06T01:18:54.125Z,91.62
2019-01-06T01:22:12.695Z,91.63
2019-01-06T01:25:38.699Z,91.67
2019-01-06T01:29:00.212Z,91.73
2019-01-06T01:32:27.607Z,91.78
2019-01-06T01:35:49.110Z,91.75
2019-01-06T01:39:10.575Z,91.81
2019-01-06T01:42:28.323Z,91.89
2019-01-06T01:45:50.105Z,91.99
2019-01-06T01:49:16.883Z,92.07
2019-01-06T01:52:37.878Z,92.13
2019-01-06T01:56:00.738Z,92.19
2019-01-06T01:59:23.635Z,92.19
2019-01-06T02:02:45.308Z,92.10
2019-01-06T02:06:08.138Z,92.07
2019-01-06T02:09:29.846Z,91.06
2019-01-06T02:12:50.064Z,90.92
2019-01-06T02:16:11.507Z,90.83
2019-01-06T02:19:33.267Z,90.91
2019-01-06T02:22:54.938Z,91.16
2019-01-06T02:26:11.282Z,91.55
2019-01-06T02:29:32.696Z,91.74
2019-01-06T02:32:57.690Z,91.81
2019-01-06T02:36:19.150Z,91.98
2019-01-06T02:39:32.119Z,92.04
2019-01-06T02:43:13.449Z,92.13
2019-01-06T02:46:39.243Z,92.21
2019-01-06T02:50:00.774Z,92.29
2019-01-06T02:53:15.115Z,92.37
2019-01-06T02:56:37.956Z,92.46
2019-01-06T02:59:56.021Z,92.43
2019-01-06T03:03:30.730Z,92.50
2019-01-06T03:06:46.439Z,92.60
2019-01-06T03:10:07.980Z,92.55
2019-01-06T03:13:37.171Z,92.47
2019-01-06T03:16:59.999Z,92.49
2019-01-06T03:20:20.137Z,92.46
2019-01-06T03:23:41.613Z,92.48
2019-01-06T03:26:54.466Z,92.46
2019-01-06T03:30:29.334Z,92.56
2019-01-06T03:34:01.141Z,92.62
2019-01-06T03:37:36.086Z,92.65
2019-01-06T03:41:04.893Z,92.70
2019-01-06T03:44:26.476Z,92.64
2019-01-06T03:47:42.827Z,92.65
2019-01-06T03:51:08.186Z,92.66
2019-01-06T03:54:39.979Z,92.72
2019-01-06T03:58:01.688Z,92.71
2019-01-06T04:01:30.522Z,92.74
2019-01-06T04:04:52.194Z,92.75
2019-01-06T04:08:30.664Z,92.75
2019-01-06T04:12:04.469Z,92.80
2019-01-06T04:15:26.075Z,92.82
2019-01-06T04:18:55.395Z,92.84
2019-01-06T04:22:17.081Z,92.86
2019-01-06T04:25:49.310Z,92.85
2019-01-06T04:29:12.217Z,92.82
2019-01-06T04:32:41.758Z,92.70
2019-01-06T04:36:13.471Z,92.42
2019-01-06T04:39:35.109Z,92.59
2019-01-06T04:42:57.928Z,92.45
2019-01-06T04:46:15.585Z,92.39
2019-01-06T04:49:37.281Z,92.35
2019-01-06T04:52:59.005Z,92.34
2019-01-06T04:56:27.887Z,92.39
2019-01-06T05:00:02.885Z,92.50
2019-01-06T05:03:29.507Z,92.63
2019-01-06T05:06:55.096Z,92.67
2019-01-06T05:10:27.220Z,92.79
2019-01-06T05:13:48.866Z,92.84
2019-01-06T05:17:11.814Z,92.90
2019-01-06T05:20:32.665Z,92.97
2019-01-06T05:24:04.394Z,93.04
2019-01-06T05:27:42.223Z,93.08
2019-01-06T05:31:01.003Z,93.13
2019-01-06T05:34:23.853Z,93.10
2019-01-06T05:37:45.332Z,93.14
2019-01-06T05:41:05.688Z,93.15
2019-01-06T05:44:34.353Z,93.23
2019-01-06T05:48:09.484Z,93.26
2019-01-06T05:51:31.052Z,93.33
2019-01-06T05:54:52.612Z,93.37
2019-01-06T05:58:21.677Z,93.34
2019-01-06T06:01:48.816Z,93.21
2019-01-06T06:05:11.232Z,93.28
2019-01-06T06:08:32.749Z,93.32
2019-01-06T06:11:58.570Z,93.36
2019-01-06T06:15:20.287Z,93.37
2019-01-06T06:18:38.158Z,93.38
2019-01-06T06:21:55.892Z,93.37
2019-01-06T06:25:20.990Z,93.35
2019-01-06T06:28:58.291Z,93.38
2019-01-06T06:32:20.203Z,93.38
2019-01-06T06:35:49.289Z,93.40
2019-01-06T06:39:11.097Z,93.33
2019-01-06T06:42:32.874Z,93.31
2019-01-06T06:45:54.495Z,93.35
2019-01-06T06:49:09.985Z,93.27
2019-01-06T06:52:28.852Z,93.29
2019-01-06T06:56:03.514Z,93.37
2019-01-06T06:59:29.335Z,93.40
2019-01-06T07:03:08.992Z,93.36
2019-01-06T07:06:25.162Z,93.39
2019-01-06T07:09:47.996Z,93.21
2019-01-06T07:13:13.621Z,93.16
2019-01-06T07:17:21.717Z,93.24
2019-01-06T07:20:44.495Z,93.35
2019-01-06T07:24:06.208Z,93.38
2019-01-06T07:27:30.201Z,93.39
2019-01-06T07:30:52.880Z,93.41
2019-01-06T07:34:25.622Z,93.34
2019-01-06T07:37:47.359Z,93.33
2019-01-06T07:41:13.211Z,93.40
2019-01-06T07:44:38.840Z,93.40
2019-01-06T07:47:54.926Z,93.42
2019-01-06T07:51:23.902Z,93.45
2019-01-06T07:54:45.241Z,93.44
2019-01-06T07:58:06.763Z,93.43
2019-01-06T08:01:34.855Z,93.45
2019-01-06T08:05:00.455Z,93.47
2019-01-06T08:08:22.185Z,93.46
2019-01-06T08:11:49.315Z,93.48
2019-01-06T08:15:10.985Z,93.44
2019-01-06T08:18:43.078Z,93.45
2019-01-06T08:22:04.799Z,93.51
2019-01-06T08:25:26.502Z,93.48
2019-01-06T08:28:48.246Z,93.42
2019-01-06T08:32:17.252Z,93.51
2019-01-06T08:35:37.733Z,93.54
2019-01-06T08:39:01.223Z,93.59
2019-01-06T08:42:22.991Z,93.59
2019-01-06T08:45:44.695Z,93.45
2019-01-06T08:49:13.589Z,93.51
2019-01-06T08:52:42.272Z,93.55
2019-01-06T08:56:04.069Z,93.58
2019-01-06T08:59:38.783Z,93.57
2019-01-06T09:03:10.633Z,93.53
2019-01-06T09:06:33.810Z,93.55
2019-01-06T09:09:55.277Z,93.57
2019-01-06T09:13:18.191Z,93.63
2019-01-06T09:16:42.183Z,93.60
2019-01-06T09:20:03.751Z,93.63
2019-01-06T09:23:18.445Z,93.67
2019-01-06T09:26:44.098Z,93.71
2019-01-06T09:30:05.743Z,93.75
2019-01-06T09:33:21.093Z,93.77
2019-01-06T09:36:43.022Z,93.79
2019-01-06T09:40:08.846Z,93.80
2019-01-06T09:43:31.672Z,93.74
2019-01-06T09:46:54.503Z,93.71
2019-01-06T09:50:19.364Z,93.75
2019-01-06T09:53:42.211Z,93.79
2019-01-06T09:57:04.007Z,93.87
2019-01-06T10:00:27.589Z,94.00
2019-01-06T10:03:52.139Z,94.03
2019-01-06T10:07:17.924Z,94.08
2019-01-06T10:10:41.400Z,94.14
2019-01-06T10:14:02.729Z,94.31
2019-01-06T10:17:24.147Z,94.40
2019-01-06T10:20:45.470Z,94.55
2019-01-06T10:23:59.419Z,94.62
2019-01-06T10:27:28.321Z,94.63
2019-01-06T10:30:49.891Z,94.77
2019-01-06T10:34:14.168Z,94.72
2019-01-06T10:37:40.096Z,94.71
2019-01-06T10:40:56.447Z,94.79
2019-01-06T10:44:29.342Z,94.79
2019-01-06T10:47:58.550Z,94.90
2019-01-06T10:51:20.333Z,94.94
2019-01-06T10:54:43.194Z,94.99
2019-01-06T10:58:04.910Z,94.99
2019-01-06T11:01:22.485Z,94.94
2019-01-06T11:04:44.289Z,95.04
2019-01-06T11:08:18.019Z,95.12
2019-01-06T11:11:48.049Z,95.18
2019-01-06T11:15:20.072Z,95.28
2019-01-06T11:18:41.880Z,95.28
2019-01-06T11:22:04.790Z,95.35
2019-01-06T11:25:30.867Z,95.40
2019-01-06T11:28:52.547Z,95.44
2019-01-06T11:32:14.236Z,95.51
2019-01-06T11:35:39.823Z,95.39
2019-01-06T11:39:07.040Z,95.25
2019-01-06T11:42:20.315Z,94.91
2019-01-06T11:45:42.008Z,94.74
2019-01-06T11:49:16.665Z,94.49
2019-01-06T11:52:42.352Z,94.43
2019-01-06T11:56:09.834Z,94.58
2019-01-06T11:59:30.367Z,94.39
2019-01-06T12:02:53.590Z,94.19
2019-01-06T12:06:16.439Z,93.78
2019-01-06T12:09:38.201Z,93.86
2019-01-06T12:12:59.871Z,93.93
2019-01-06T12:16:25.510Z,93.87
2019-01-06T12:19:45.538Z,93.25
2019-01-06T12:23:08.327Z,93.28
2019-01-06T12:26:34.528Z,93.03
2019-01-06T12:29:57.343Z,93.06
2019-01-06T12:33:25.866Z,93.43
2019-01-06T12:36:56.886Z,93.66
2019-01-06T12:40:18.557Z,93.75
2019-01-06T12:43:40.537Z,93.65
2019-01-06T12:47:02.390Z,92.97
2019-01-06T12:50:19.737Z,92.76
2019-01-06T12:53:40.075Z,92.92
2019-01-06T12:56:57.991Z,92.99
2019-01-06T13:00:19.579Z,92.74
2019-01-06T13:03:41.519Z,92.89
2019-01-06T13:07:03.210Z,92.58
2019-01-06T13:10:26.589Z,92.72
2019-01-06T13:13:53.538Z,92.29
2019-01-06T13:17:17.727Z,92.37
2019-01-06T13:20:47.029Z,92.33
2019-01-06T13:24:08.769Z,92.00
2019-01-06T13:27:34.496Z,91.34
2019-01-06T13:31:00.522Z,91.56
2019-01-06T13:34:16.096Z,91.67
2019-01-06T13:37:54.629Z,91.81
2019-01-06T13:41:16.556Z,90.88
2019-01-06T13:44:41.373Z,91.58
2019-01-06T13:48:16.292Z,90.44
2019-01-06T13:51:38.070Z,90.68
2019-01-06T13:55:04.081Z,90.58
2019-01-06T13:58:26.902Z,91.22
2019-01-06T14:01:55.703Z,91.56
2019-01-06T14:05:33.504Z,91.67
2019-01-06T14:08:55.013Z,91.54
2019-01-06T14:12:16.762Z,90.96
2019-01-06T14:15:39.597Z,91.27
2019-01-06T14:18:58.268Z,91.45
2019-01-06T14:22:19.065Z,91.52
2019-01-06T14:25:40.740Z,91.53
2019-01-06T14:29:02.406Z,91.45
2019-01-06T14:32:25.175Z,91.68
2019-01-06T14:35:48.005Z,91.85
2019-01-06T14:39:11.026Z,91.76
2019-01-06T14:42:32.767Z,91.91
2019-01-06T14:45:46.651Z,91.95
2019-01-06T14:49:12.257Z,91.86
2019-01-06T14:52:39.132Z,91.65
2019-01-06T14:56:01.158Z,91.71
2019-01-06T14:59:18.417Z,91.30
2019-01-06T15:02:37.770Z,90.75
2019-01-06T15:05:59.246Z,90.89
2019-01-06T15:09:20.772Z,91.24
2019-01-06T15:12:44.616Z,91.16
2019-01-06T15:16:06.084Z,90.43
2019-01-06T15:19:25.578Z,90.57
2019-01-06T15:22:48.770Z,90.55
2019-01-06T15:26:09.559Z,90.62
2019-01-06T15:29:32.393Z,90.35
2019-01-06T15:32:54.021Z,89.24
2019-01-06T15:36:15.751Z,88.53
2019-01-06T15:39:41.304Z,88.92
2019-01-06T15:43:16.268Z,89.14
2019-01-06T15:46:44.874Z,88.58
2019-01-06T15:50:07.708Z,88.52
2019-01-06T15:53:48.801Z,88.86
2019-01-06T15:57:10.429Z,89.15
2019-01-06T16:00:39.534Z,88.83
2019-01-06T16:04:16.680Z,88.57
2019-01-06T16:07:38.152Z,88.03
2019-01-06T16:11:16.360Z,87.77
2019-01-06T16:14:45.314Z,87.63
2019-01-06T16:18:10.955Z,87.27
2019-01-06T16:21:32.654Z,87.82
2019-01-06T16:24:56.421Z,87.60
2019-01-06T16:28:12.703Z,87.71
2019-01-06T16:31:41.645Z,87.01
2019-01-06T16:35:11.847Z,86.79
2019-01-06T16:38:33.774Z,86.50
2019-01-06T16:42:08.956Z,86.61
2019-01-06T16:45:30.605Z,86.34
2019-01-06T16:48:57.280Z,86.51
2019-01-06T16:52:25.156Z,86.69
2019-01-06T16:55:46.639Z,87.23
2019-01-06T16:59:27.947Z,87.26
2019-01-06T17:02:49.720Z,87.43
2019-01-06T17:06:18.619Z,87.47
2019-01-06T17:09:50.664Z,87.53
2019-01-06T17:13:10.756Z,87.36
2019-01-06T17:16:32.983Z,87.07
2019-01-06T17:19:45.711Z,87.32
2019-01-06T17:23:07.483Z,87.51
2019-01-06T17:26:25.846Z,87.68
2019-01-06T17:29:51.412Z,87.57
2019-01-06T17:33:14.227Z,87.81
2019-01-06T17:36:37.217Z,87.82
2019-01-06T17:39:58.182Z,87.51
2019-01-06T17:43:33.396Z,87.25
2019-01-06T17:46:55.143Z,87.66
2019-01-06T17:50:30.258Z,87.02
2019-01-06T17:54:11.294Z,87.49
2019-01-06T17:57:37.977Z,87.61
2019-01-06T18:01:18.995Z,87.33
2019-01-06T18:04:44.579Z,87.51
2019-01-06T18:08:13.428Z,87.78
2019-01-06T18:11:35.161Z,88.12
2019-01-06T18:14:54.052Z,87.88
2019-01-06T18:18:26.134Z,87.86
2019-01-06T18:21:59.518Z,87.90
2019-01-06T18:25:34.707Z,87.60
2019-01-06T18:28:58.022Z,87.66
2019-01-06T18:32:29.941Z,87.96
2019-01-06T18:35:51.589Z,88.02
2019-01-06T18:39:22.777Z,88.25
2019-01-06T18:42:44.480Z,86.83
2019-01-06T18:46:06.198Z,86.66
2019-01-06T18:49:22.731Z,86.99
2019-01-06T18:52:56.244Z,86.82
2019-01-06T18:56:13.426Z,87.08
2019-01-06T18:59:45.538Z,86.62
2019-01-06T19:03:07.402Z,87.05
2019-01-06T19:06:29.423Z,86.92
2019-01-06T19:09:51.417Z,87.47
2019-01-06T19:13:29.684Z,87.41
2019-01-06T19:16:46.472Z,87.33
2019-01-06T19:20:20.385Z,86.97
2019-01-06T19:23:40.071Z,87.46
2019-01-06T19:27:21.551Z,87.29
2019-01-06T19:30:37.640Z,87.33
2019-01-06T19:34:00.467Z,86.82
2019-01-06T19:37:41.455Z,87.06
2019-01-06T19:41:13.349Z,87.39
2019-01-06T19:44:54.344Z,87.10
2019-01-06T19:48:29.317Z,87.22
2019-01-06T19:51:52.148Z,87.07
2019-01-06T19:55:09.851Z,87.10
2019-01-06T19:58:37.821Z,87.18
2019-01-06T20:01:59.437Z,86.35
2019-01-06T20:05:40.693Z,86.20
2019-01-06T20:09:11.677Z,86.55
2019-01-06T20:12:46.477Z,86.73
2019-01-06T20:16:15.355Z,86.95
2019-01-06T20:19:37.011Z,86.27
2019-01-06T20:22:58.845Z,86.22
2019-01-06T20:26:13.424Z,85.16
2019-01-06T20:29:45.115Z,85.29
2019-01-06T20:33:00.821Z,85.38
2019-01-06T20:36:22.311Z,85.03
2019-01-06T20:39:51.538Z,85.43
2019-01-06T20:43:23.598Z,85.26
2019-01-06T20:47:04.580Z,85.03
2019-01-06T20:50:27.414Z,85.09
2019-01-06T20:53:49.363Z,85.18
2019-01-06T20:57:11.168Z,85.65
2019-01-06T21:00:26.958Z,85.42
2019-01-06T21:04:01.497Z,85.03
2019-01-06T21:07:19.578Z,85.10
2019-01-06T21:10:41.411Z,85.67
2019-01-06T21:14:03.333Z,85.57
2019-01-06T21:17:25.235Z,85.63
2019-01-06T21:20:41.022Z,85.67
2019-01-06T21:24:09.671Z,86.16
2019-01-06T21:27:28.805Z,85.73
2019-01-06T21:30:50.291Z,86.44
2019-01-06T21:34:10.894Z,86.43
2019-01-06T21:37:36.556Z,85.91
2019-01-06T21:40:58.098Z,85.95
2019-01-06T21:44:15.479Z,85.83
2019-01-06T21:47:36.969Z,85.89
2019-01-06T21:50:58.683Z,86.05
2019-01-06T21:54:15.440Z,86.38
2019-01-06T21:57:38.258Z,86.19
2019-01-06T22:00:56.553Z,86.28
2019-01-06T22:04:13.871Z,86.02
2019-01-06T22:07:46.357Z,86.29
2019-01-06T22:11:06.727Z,86.12
2019-01-06T22:14:29.591Z,85.87
2019-01-06T22:18:04.790Z,85.91
2019-01-06T22:21:30.425Z,85.94
2019-01-06T22:25:00.193Z,85.91
2019-01-06T22:28:35.238Z,86.34
2019-01-06T22:31:50.941Z,86.59
2019-01-06T22:35:19.581Z,86.45
2019-01-06T22:38:57.526Z,87.30
2019-01-06T22:42:29.243Z,87.53
2019-01-06T22:45:50.851Z,87.72
2019-01-06T22:49:06.576Z,88.37
2019-01-06T22:52:26.652Z,88.68
2019-01-06T22:55:48.188Z,88.56
2019-01-06T22:59:09.732Z,88.67
2019-01-06T23:02:48.002Z,88.73
2019-01-06T23:06:18.575Z,89.16
2019-01-06T23:09:51.458Z,89.21
2019-01-06T23:13:08.669Z,89.03
2019-01-06T23:16:30.219Z,89.15
2019-01-06T23:19:49.363Z,89.84
2019-01-06T23:23:27.284Z,89.98
2019-01-06T23:26:48.852Z,90.12
2019-01-06T23:30:10.634Z,90.20
2019-01-06T23:33:32.395Z,90.18
2019-01-06T23:36:54.058Z,90.32
2019-01-06T23:40:32.099Z,90.74
2019-01-06T23:44:01.059Z,90.65
2019-01-06T23:47:22.578Z,90.58
2019-01-06T23:50:42.718Z,90.57
2019-01-06T23:53:56.442Z,90.70
2019-01-06T23:57:18.702Z,91.00
